Time;durP1;ratioP1;P1;durP2;ratioP2;P2;SDS_P1;SDS_P2;PMS_P1;PMS_P2;Temp;Humidity;BMP_temperature;BMP_pressure;BME280_temperature;BME280_humidity;BME280_pressure;Samples;Min_cycle;Max_cycle;Signal;HPM_P1;HPM_P2
2023/01/11 00:01:48;;;;;;;9.73;4.60;;;;;;;;;;5078652;28;20271;-61
2023/01/11 00:04:16;;;;;;;5.90;3.47;;;;;;;;;;5078830;28;20230;-61
2023/01/11 00:06:44;;;;;;;8.67;3.77;;;;;;;;;;5078719;28;20289;-61
2023/01/11 00:09:14;;;;;;;7.73;3.27;;;;;;;;;;5078806;28;20681;-61
2023/01/11 00:11:42;;;;;;;6.57;3.73;;;;;;;;;;5078608;28;20292;-61
2023/01/11 00:14:10;;;;;;;6.03;3.77;;;;;;;;;;5078322;28;20759;-61
2023/01/11 00:16:38;;;;;;;7.23;3.87;;;;;;;;;;5078454;28;20210;-61
2023/01/11 00:19:06;;;;;;;9.20;4.50;;;;;;;;;;5078636;28;20605;-61
2023/01/11 00:21:34;;;;;;;9.50;5.33;;;;;;;;;;5078446;28;20210;-61
2023/01/11 00:24:02;;;;;;;9.63;5.03;;;;;;;;;;5078562;28;20234;-61
2023/01/11 00:26:31;;;;;;;10.10;4.20;;;;;;;;;;5078479;28;20218;-60
2023/01/11 00:28:59;;;;;;;8.20;3.60;;;;;;;;;;5078194;28;20230;-61
2023/01/11 00:31:27;;;;;;;6.13;2.97;;;;;;;;;;5078130;28;20217;-61
2023/01/11 00:33:55;;;;;;;7.60;4.17;;;;;;;;;;5078282;28;20234;-60
2023/01/11 00:36:23;;;;;;;7.37;2.93;;;;;;;;;;5077987;28;20206;-60
2023/01/11 00:38:52;;;;;;;8.20;4.23;;;;;;;;;;5078455;28;20247;-61
2023/01/11 00:49:40;;;;;;;4.83;3.20;;;;;;;;;;5078083;28;20225;-62
2023/01/11 00:52:08;;;;;;;6.20;2.63;;;;;;;;;;5078109;28;20217;-61
2023/01/11 00:54:37;;;;;;;6.60;2.67;;;;;;;;;;5078109;28;20293;-60
2023/01/11 00:57:06;;;;;;;7.20;2.73;;;;;;;;;;5077785;28;20665;-61
2023/01/11 00:59:35;;;;;;;5.87;2.67;;;;;;;;;;5077657;28;20640;-61
2023/01/11 01:02:04;;;;;;;8.63;3.10;;;;;;;;;;5078145;28;20232;-62
2023/01/11 01:04:32;;;;;;;4.27;2.63;;;;;;;;;;5077662;28;20253;-61
2023/01/11 01:07:00;;;;;;;6.33;2.60;;;;;;;;;;5077867;28;20217;-61
2023/01/11 01:09:28;;;;;;;8.57;2.60;;;;;;;;;;5077953;28;20222;-60
2023/01/11 01:11:56;;;;;;;5.03;3.17;;;;;;;;;;5077879;28;20214;-59
2023/01/11 01:14:27;;;;;;;3.93;2.63;;;;;;;;;;5077677;28;20232;-60
2023/01/11 01:16:57;;;;;;;6.07;3.17;;;;;;;;;;5077898;28;20212;-61
2023/01/11 01:19:26;;;;;;;6.80;3.80;;;;;;;;;;5077708;28;20259;-61
2023/01/11 01:21:55;;;;;;;9.20;3.60;;;;;;;;;;5077899;28;20264;-61
2023/01/11 01:24:23;;;;;;;5.83;2.57;;;;;;;;;;5077709;28;20237;-61
2023/01/11 01:26:51;;;;;;;6.43;2.90;;;;;;;;;;5077870;28;20210;-61
2023/01/11 01:29:19;;;;;;;8.33;4.10;;;;;;;;;;5077370;28;20279;-61
2023/01/11 01:31:47;;;;;;;5.43;3.30;;;;;;;;;;5077595;28;20251;-61
2023/01/11 01:34:16;;;;;;;5.70;3.30;;;;;;;;;;5080405;28;20701;-61
2023/01/11 01:36:44;;;;;;;4.27;2.70;;;;;;;;;;5081877;28;20209;-61
2023/01/11 01:39:12;;;;;;;8.27;3.33;;;;;;;;;;5081701;28;20205;-61
2023/01/11 01:41:40;;;;;;;5.43;2.73;;;;;;;;;;5081459;28;20206;-61
2023/01/11 01:44:23;;;;;;;6.77;3.30;;;;;;;;;;5081243;28;20222;-61
2023/01/11 01:46:51;;;;;;;8.23;3.27;;;;;;;;;;5081308;28;20210;-61
2023/01/11 01:49:20;;;;;;;9.33;3.47;;;;;;;;;;5081140;28;20226;-61
2023/01/11 01:51:51;;;;;;;5.60;3.33;;;;;;;;;;5081469;28;20206;-61
2023/01/11 01:54:22;;;;;;;5.30;2.63;;;;;;;;;;5081419;28;20280;-61
2023/01/11 01:56:52;;;;;;;5.60;3.70;;;;;;;;;;5081091;28;20210;-61
2023/01/11 01:59:21;;;;;;;9.53;3.87;;;;;;;;;;5070320;28;20210;-61
2023/01/11 02:01:49;;;;;;;7.97;3.20;;;;;;;;;;5081126;28;20613;-61
2023/01/11 02:04:23;;;;;;;4.33;2.57;;;;;;;;;;5081054;28;20711;-61
2023/01/11 02:06:53;;;;;;;6.13;3.03;;;;;;;;;;5081232;28;20209;-61
2023/01/11 02:09:24;;;;;;;6.73;3.77;;;;;;;;;;5081275;28;20226;-61
2023/01/11 02:11:52;;;;;;;8.37;4.20;;;;;;;;;;5081034;28;20598;-61
2023/01/11 02:14:21;;;;;;;8.17;3.73;;;;;;;;;;5080814;28;20230;-61
2023/01/11 02:16:49;;;;;;;7.37;3.37;;;;;;;;;;5080936;28;20210;-61
2023/01/11 02:19:35;;;;;;;6.93;4.37;;;;;;;;;;5080757;28;20199;-61
2023/01/11 02:22:14;;;;;;;6.03;3.13;;;;;;;;;;5080955;28;20213;-61
2023/01/11 02:24:54;;;;;;;5.03;3.37;;;;;;;;;;5080717;28;20550;-61
2023/01/11 02:27:28;;;;;;;9.00;3.80;;;;;;;;;;5080779;28;20202;-61
2023/01/11 02:30:05;;;;;;;6.80;3.23;;;;;;;;;;5080419;28;20225;-61
2023/01/11 02:32:35;;;;;;;8.23;3.50;;;;;;;;;;5080896;28;20637;-62
2023/01/11 02:35:11;;;;;;;9.30;3.83;;;;;;;;;;5080272;28;20234;-61
2023/01/11 02:37:42;;;;;;;9.77;3.30;;;;;;;;;;5080698;28;20216;-61
2023/01/11 02:40:17;;;;;;;8.47;2.80;;;;;;;;;;5080330;28;20207;-61
2023/01/11 02:45:39;;;;;;;5.53;2.63;;;;;;;;;;5068850;28;20214;-61
2023/01/11 02:48:13;;;;;;;6.60;2.60;;;;;;;;;;5080580;28;20688;-61
2023/01/11 02:50:42;;;;;;;5.10;2.70;;;;;;;;;;5080338;28;20226;-61
2023/01/11 02:53:17;;;;;;;6.33;2.80;;;;;;;;;;5080286;28;20226;-61
2023/01/11 02:55:47;;;;;;;3.93;2.40;;;;;;;;;;5080491;28;20243;-61
2023/01/11 02:58:16;;;;;;;7.90;2.80;;;;;;;;;;5080161;28;20202;-61
2023/01/11 03:00:46;;;;;;;6.73;3.00;;;;;;;;;;5080057;28;20202;-61
2023/01/11 03:03:15;;;;;;;5.93;2.53;;;;;;;;;;5079779;28;20245;-61
2023/01/11 03:05:45;;;;;;;6.40;2.67;;;;;;;;;;5079719;28;20332;-61
2023/01/11 03:08:30;;;;;;;3.53;2.60;;;;;;;;;;5076394;28;20206;-61
2023/01/11 03:11:02;;;;;;;5.10;2.83;;;;;;;;;;5079837;28;20282;-61
2023/01/11 03:13:35;;;;;;;7.47;3.27;;;;;;;;;;5079544;28;20221;-61
2023/01/11 03:16:10;;;;;;;5.83;2.53;;;;;;;;;;5079445;28;20561;-61
2023/01/11 03:18:46;;;;;;;5.03;2.57;;;;;;;;;;5073152;28;20232;-61
2023/01/11 03:21:21;;;;;;;4.07;2.13;;;;;;;;;;5079070;28;20561;-61
2023/01/11 03:23:55;;;;;;;6.70;4.00;;;;;;;;;;5076552;28;20627;-61
2023/01/11 03:26:27;;;;;;;4.43;2.90;;;;;;;;;;5071396;28;20198;-61
2023/01/11 03:28:59;;;;;;;5.70;3.97;;;;;;;;;;5078934;28;20199;-61
2023/01/11 03:31:32;;;;;;;7.37;2.77;;;;;;;;;;5079515;28;20201;-61
2023/01/11 03:34:03;;;;;;;8.07;3.37;;;;;;;;;;5075331;28;20276;-61
2023/01/11 03:36:34;;;;;;;7.73;2.77;;;;;;;;;;5077340;28;20209;-61
2023/01/11 03:39:06;;;;;;;5.27;3.07;;;;;;;;;;5079457;28;20672;-61
2023/01/11 03:41:38;;;;;;;5.77;3.03;;;;;;;;;;5079249;28;20676;-60
2023/01/11 03:44:06;;;;;;;5.50;2.97;;;;;;;;;;5079013;28;20230;-61
2023/01/11 03:46:37;;;;;;;4.93;2.70;;;;;;;;;;5079024;28;20691;-61
2023/01/11 03:49:07;;;;;;;5.73;2.80;;;;;;;;;;5079249;28;20210;-61
2023/01/11 03:51:37;;;;;;;5.77;3.10;;;;;;;;;;5079140;28;20233;-61
2023/01/11 03:54:07;;;;;;;5.90;2.87;;;;;;;;;;5079124;28;20237;-61
2023/01/11 03:56:37;;;;;;;11.53;3.70;;;;;;;;;;5078591;28;20206;-61
2023/01/11 03:59:05;;;;;;;7.77;3.40;;;;;;;;;;5078793;28;20213;-61
2023/01/11 04:01:32;;;;;;;7.50;2.93;;;;;;;;;;5078752;28;20546;-61
2023/01/11 04:04:02;;;;;;;5.03;2.27;;;;;;;;;;5078934;28;20264;-61
2023/01/11 04:06:32;;;;;;;7.43;3.00;;;;;;;;;;5078774;28;20206;-61
2023/01/11 04:09:00;;;;;;;4.87;2.63;;;;;;;;;;5078928;28;20237;-61
2023/01/11 04:11:27;;;;;;;6.40;2.63;;;;;;;;;;5078811;28;20229;-61
2023/01/11 04:13:55;;;;;;;5.43;3.60;;;;;;;;;;5078455;28;20636;-61
2023/01/11 04:16:23;;;;;;;5.37;2.83;;;;;;;;;;5078739;28;20256;-61
2023/01/11 04:18:51;;;;;;;7.33;3.00;;;;;;;;;;5078464;28;20214;-61
2023/01/11 04:21:21;;;;;;;5.77;2.50;;;;;;;;;;5065373;28;20202;-61
2023/01/11 04:23:49;;;;;;;3.77;2.43;;;;;;;;;;5078327;28;20689;-61
2023/01/11 04:26:17;;;;;;;7.37;2.90;;;;;;;;;;5078735;28;20206;-61
2023/01/11 04:28:45;;;;;;;4.43;2.50;;;;;;;;;;5078560;28;20206;-61
2023/01/11 04:31:13;;;;;;;10.63;2.40;;;;;;;;;;5078209;28;20249;-61
2023/01/11 04:33:41;;;;;;;10.50;2.63;;;;;;;;;;5078105;28;20237;-61
2023/01/11 04:36:10;;;;;;;5.63;2.50;;;;;;;;;;5078201;28;20217;-61
2023/01/11 04:38:39;;;;;;;7.03;2.73;;;;;;;;;;5078137;28;20210;-61
2023/01/11 04:43:54;;;;;;;3.80;2.87;;;;;;;;;;5076949;28;20214;-61
2023/01/11 04:46:22;;;;;;;7.33;3.07;;;;;;;;;;5077189;28;20198;-60
2023/01/11 04:48:50;;;;;;;7.63;3.57;;;;;;;;;;5076632;28;20648;-61
2023/01/11 04:51:18;;;;;;;9.60;2.97;;;;;;;;;;5076772;28;20225;-59
2023/01/11 04:53:48;;;;;;;5.20;2.90;;;;;;;;;;5076703;28;20724;-60
2023/01/11 04:56:17;;;;;;;9.17;3.10;;;;;;;;;;5077032;28;20228;-60
2023/01/11 04:58:45;;;;;;;10.07;3.20;;;;;;;;;;5075886;28;20548;-61
2023/01/11 05:01:15;;;;;;;6.63;2.50;;;;;;;;;;5074147;28;20654;-61
2023/01/11 05:03:44;;;;;;;4.43;2.47;;;;;;;;;;5076509;28;20226;-60
2023/01/11 05:06:12;;;;;;;4.13;3.03;;;;;;;;;;5073761;28;20655;-60
2023/01/11 05:08:44;;;;;;;7.10;2.93;;;;;;;;;;5075719;28;20276;-61
2023/01/11 05:11:14;;;;;;;5.43;2.77;;;;;;;;;;5074207;28;20253;-61
2023/01/11 05:13:42;;;;;;;4.60;2.57;;;;;;;;;;5076403;28;20222;-61
2023/01/11 05:16:10;;;;;;;11.13;2.93;;;;;;;;;;5076358;28;20322;-61
2023/01/11 05:18:39;;;;;;;7.57;3.10;;;;;;;;;;5076717;28;20259;-61
2023/01/11 05:21:08;;;;;;;4.33;2.43;;;;;;;;;;5076033;28;20566;-60
2023/01/11 05:23:36;;;;;;;4.87;3.20;;;;;;;;;;5076548;28;20214;-61
2023/01/11 05:26:05;;;;;;;4.67;2.50;;;;;;;;;;5076581;28;20198;-61
2023/01/11 05:28:35;;;;;;;4.20;2.60;;;;;;;;;;5073833;28;20198;-61
2023/01/11 05:31:03;;;;;;;7.50;2.73;;;;;;;;;;5076178;28;20228;-60
2023/01/11 05:33:31;;;;;;;5.27;2.20;;;;;;;;;;5073224;28;20286;-60
2023/01/11 05:35:59;;;;;;;8.47;2.93;;;;;;;;;;5073244;28;20241;-59
2023/01/11 05:38:27;;;;;;;6.87;2.60;;;;;;;;;;5076220;28;20202;-60
2023/01/11 05:40:56;;;;;;;5.03;3.13;;;;;;;;;;5076195;28;20606;-60
2023/01/11 05:43:25;;;;;;;7.17;2.80;;;;;;;;;;5076238;28;20214;-60
2023/01/11 05:45:53;;;;;;;5.53;2.63;;;;;;;;;;5075797;28;20204;-60
2023/01/11 05:48:21;;;;;;;4.10;2.77;;;;;;;;;;5076022;28;20210;-60
2023/01/11 05:50:50;;;;;;;7.43;3.23;;;;;;;;;;5075822;28;20225;-59
2023/01/11 05:53:18;;;;;;;6.53;3.23;;;;;;;;;;5073789;28;20275;-60
2023/01/11 05:55:53;;;;;;;5.33;3.20;;;;;;;;;;5076199;28;20209;-61
2023/01/11 05:58:21;;;;;;;5.30;3.10;;;;;;;;;;5075775;28;20205;-61
2023/01/11 06:00:49;;;;;;;6.00;2.90;;;;;;;;;;5076010;28;20194;-61
2023/01/11 06:03:19;;;;;;;8.07;3.10;;;;;;;;;;5075736;28;20218;-60
2023/01/11 06:05:47;;;;;;;7.07;2.60;;;;;;;;;;5074782;28;20202;-60
2023/01/11 06:08:16;;;;;;;5.77;3.20;;;;;;;;;;5075922;28;20226;-60
2023/01/11 06:10:45;;;;;;;4.83;2.47;;;;;;;;;;5074798;28;20242;-61
2023/01/11 06:13:28;;;;;;;15.53;3.23;;;;;;;;;;5076012;28;20234;-61
2023/01/11 06:15:59;;;;;;;4.10;2.70;;;;;;;;;;5074931;28;20317;-61
2023/01/11 06:18:28;;;;;;;5.53;3.37;;;;;;;;;;5073981;28;20202;-61
2023/01/11 06:20:57;;;;;;;4.63;2.70;;;;;;;;;;5079354;28;20222;-60
2023/01/11 06:23:27;;;;;;;4.70;2.80;;;;;;;;;;5079715;28;20224;-60
2023/01/11 06:25:55;;;;;;;5.77;2.63;;;;;;;;;;5079824;28;20229;-60
2023/01/11 06:28:24;;;;;;;6.27;2.70;;;;;;;;;;5076874;28;20205;-60
2023/01/11 06:30:52;;;;;;;6.27;2.10;;;;;;;;;;5078964;28;20233;-62
2023/01/11 06:33:21;;;;;;;6.40;2.53;;;;;;;;;;5079279;28;20572;-61
2023/01/11 06:35:51;;;;;;;5.37;2.67;;;;;;;;;;5079723;28;20630;-61
2023/01/11 06:38:20;;;;;;;6.53;2.30;;;;;;;;;;5078898;28;20237;-61
2023/01/11 06:40:52;;;;;;;6.23;2.70;;;;;;;;;;5077084;28;20210;-61
2023/01/11 06:43:20;;;;;;;7.17;3.10;;;;;;;;;;5078037;28;20227;-61
2023/01/11 06:45:48;;;;;;;4.73;2.57;;;;;;;;;;5077627;28;20206;-61
2023/01/11 06:48:16;;;;;;;5.27;3.83;;;;;;;;;;5077448;28;20225;-58
2023/01/11 06:50:47;;;;;;;7.67;3.20;;;;;;;;;;5083031;28;20206;-59
2023/01/11 06:53:17;;;;;;;5.93;3.20;;;;;;;;;;5078988;28;20218;-60
2023/01/11 06:55:49;;;;;;;6.17;3.27;;;;;;;;;;5078748;28;20217;-60
2023/01/11 06:58:17;;;;;;;6.83;2.97;;;;;;;;;;5078981;28;20206;-60
2023/01/11 07:00:45;;;;;;;5.93;3.00;;;;;;;;;;5078641;28;20214;-58
2023/01/11 07:03:13;;;;;;;6.20;2.90;;;;;;;;;;5078705;28;20222;-60
2023/01/11 07:05:43;;;;;;;7.53;3.70;;;;;;;;;;5078512;28;20752;-60
2023/01/11 07:08:11;;;;;;;3.43;2.70;;;;;;;;;;5078945;28;20206;-60
2023/01/11 07:10:40;;;;;;;6.57;3.03;;;;;;;;;;5079069;28;20206;-60
2023/01/11 07:13:08;;;;;;;10.47;3.00;;;;;;;;;;5078506;28;20615;-60
2023/01/11 07:15:36;;;;;;;7.50;3.43;;;;;;;;;;5078606;28;20293;-60
2023/01/11 07:18:04;;;;;;;7.97;3.73;;;;;;;;;;5079241;28;20228;-59
2023/01/11 07:20:32;;;;;;;8.37;3.40;;;;;;;;;;5082382;28;20233;-61
2023/01/11 07:23:01;;;;;;;6.73;3.07;;;;;;;;;;5071302;28;20253;-61
2023/01/11 07:25:29;;;;;;;14.63;3.23;;;;;;;;;;5079350;28;20228;-60
2023/01/11 07:27:59;;;;;;;7.77;3.33;;;;;;;;;;5079605;28;20203;-60
2023/01/11 07:30:28;;;;;;;5.67;2.63;;;;;;;;;;5078249;28;20202;-60
2023/01/11 07:32:57;;;;;;;5.40;2.90;;;;;;;;;;5078899;28;20309;-62
2023/01/11 07:35:25;;;;;;;6.40;2.80;;;;;;;;;;5078982;28;20570;-60
2023/01/11 07:37:56;;;;;;;5.77;2.80;;;;;;;;;;5079225;28;20247;-60
2023/01/11 07:40:24;;;;;;;3.70;2.37;;;;;;;;;;5079296;28;20295;-60
2023/01/11 07:43:10;;;;;;;8.93;2.83;;;;;;;;;;5078854;28;20225;-60
2023/01/11 07:45:41;;;;;;;3.17;2.43;;;;;;;;;;5079073;28;20210;-60
2023/01/11 07:48:14;;;;;;;9.90;3.70;;;;;;;;;;5078861;28;20240;-61
2023/01/11 07:50:42;;;;;;;7.90;2.77;;;;;;;;;;5078823;28;20206;-60
2023/01/11 07:53:12;;;;;;;7.30;3.30;;;;;;;;;;5078974;28;20364;-59
2023/01/11 07:55:40;;;;;;;9.50;3.23;;;;;;;;;;5078973;28;20210;-59
2023/01/11 07:58:10;;;;;;;8.93;2.60;;;;;;;;;;5078775;28;20202;-60
2023/01/11 08:00:41;;;;;;;8.30;2.67;;;;;;;;;;5078354;28;20202;-60
2023/01/11 08:03:09;;;;;;;7.50;2.70;;;;;;;;;;5078585;28;20253;-60
2023/01/11 08:05:38;;;;;;;7.10;2.87;;;;;;;;;;5078536;28;20206;-60
2023/01/11 08:08:06;;;;;;;7.70;3.77;;;;;;;;;;5078579;28;20355;-59
2023/01/11 08:10:34;;;;;;;10.23;5.27;;;;;;;;;;5078434;28;20210;-59
2023/01/11 08:15:49;;;;;;;3.77;3.07;;;;;;;;;;5078217;28;20210;-60
2023/01/11 08:18:18;;;;;;;3.20;2.63;;;;;;;;;;5078314;28;20206;-59
2023/01/11 08:20:46;;;;;;;5.13;2.90;;;;;;;;;;5078290;28;20208;-60
2023/01/11 08:23:14;;;;;;;7.23;2.83;;;;;;;;;;5078291;28;20229;-59
2023/01/11 08:25:43;;;;;;;5.70;3.40;;;;;;;;;;5078110;28;20206;-60
2023/01/11 08:28:11;;;;;;;9.40;3.60;;;;;;;;;;5078381;28;20230;-59
2023/01/11 08:30:39;;;;;;;5.00;2.93;;;;;;;;;;5078028;28;20210;-60
2023/01/11 08:33:10;;;;;;;9.20;3.30;;;;;;;;;;5077899;28;20283;-60
2023/01/11 08:35:39;;;;;;;7.37;3.67;;;;;;;;;;5078253;28;20246;-60
2023/01/11 08:38:07;;;;;;;4.30;2.70;;;;;;;;;;5074372;28;20195;-60
2023/01/11 08:40:35;;;;;;;6.90;3.47;;;;;;;;;;5071694;28;20210;-60
2023/01/11 08:43:03;;;;;;;7.70;2.53;;;;;;;;;;5077957;28;20214;-60
2023/01/11 08:45:32;;;;;;;5.47;2.90;;;;;;;;;;5077701;28;20213;-60
2023/01/11 08:48:00;;;;;;;5.27;2.73;;;;;;;;;;5077767;28;20210;-61
2023/01/11 08:50:30;;;;;;;6.30;3.27;;;;;;;;;;5077452;28;20218;-61
2023/01/11 08:52:58;;;;;;;6.00;2.47;;;;;;;;;;5076582;28;20260;-61
2023/01/11 08:55:26;;;;;;;6.97;3.13;;;;;;;;;;5073896;28;20202;-60
2023/01/11 08:57:56;;;;;;;7.67;2.70;;;;;;;;;;5076996;28;20206;-61
2023/01/11 09:00:24;;;;;;;9.70;3.10;;;;;;;;;;5077002;28;20632;-60
2023/01/11 09:02:52;;;;;;;6.13;2.40;;;;;;;;;;5077459;28;20240;-61
2023/01/11 09:05:21;;;;;;;5.93;2.77;;;;;;;;;;5068880;28;20289;-60
2023/01/11 09:07:54;;;;;;;10.90;2.87;;;;;;;;;;5077824;28;20208;-60
2023/01/11 09:10:25;;;;;;;3.23;2.40;;;;;;;;;;5077534;28;20206;-60
2023/01/11 09:12:54;;;;;;;5.97;2.50;;;;;;;;;;5077383;28;20687;-60
2023/01/11 09:15:22;;;;;;;7.30;3.10;;;;;;;;;;5077217;28;20208;-60
2023/01/11 09:17:51;;;;;;;6.23;2.93;;;;;;;;;;5077655;28;20209;-60
2023/01/11 09:20:20;;;;;;;7.40;3.40;;;;;;;;;;5077523;28;20234;-60
2023/01/11 09:22:49;;;;;;;6.03;3.23;;;;;;;;;;5077382;28;20218;-60
2023/01/11 09:25:21;;;;;;;7.40;2.63;;;;;;;;;;5077385;28;20206;-60
2023/01/11 09:27:49;;;;;;;5.23;2.90;;;;;;;;;;5077336;28;20213;-60
2023/01/11 09:30:19;;;;;;;7.47;2.60;;;;;;;;;;5077063;28;20662;-61
2023/01/11 09:32:47;;;;;;;3.33;2.50;;;;;;;;;;5077380;28;20260;-62
2023/01/11 09:35:16;;;;;;;4.37;2.70;;;;;;;;;;5076627;28;20612;-62
2023/01/11 09:37:48;;;;;;;6.20;2.67;;;;;;;;;;5076019;28;20205;-62
2023/01/11 09:40:18;;;;;;;4.50;2.37;;;;;;;;;;5077370;28;20214;-62
2023/01/11 09:42:51;;;;;;;7.33;2.77;;;;;;;;;;5070676;28;20268;-62
2023/01/11 09:45:21;;;;;;;2.93;1.90;;;;;;;;;;5074598;28;20639;-62
2023/01/11 09:47:59;;;;;;;4.37;2.50;;;;;;;;;;5077158;28;20580;-62
2023/01/11 09:50:29;;;;;;;6.63;2.87;;;;;;;;;;5077339;28;20202;-62
2023/01/11 09:52:58;;;;;;;4.50;2.60;;;;;;;;;;5077051;28;20607;-62
2023/01/11 09:55:31;;;;;;;6.53;2.27;;;;;;;;;;5080323;28;20619;-62
2023/01/11 09:58:06;;;;;;;3.50;2.40;;;;;;;;;;5081110;28;20293;-62
2023/01/11 10:00:39;;;;;;;6.43;2.70;;;;;;;;;;5078761;28;20229;-62
2023/01/11 10:03:28;;;;;;;6.30;2.77;;;;;;;;;;5072672;28;20308;-62
2023/01/11 10:06:01;;;;;;;4.17;2.80;;;;;;;;;;5078886;28;20585;-61
2023/01/11 10:08:40;;;;;;;8.67;3.37;;;;;;;;;;5080482;28;20255;-62
2023/01/11 10:11:34;;;;;;;6.27;3.30;;;;;;;;;;5080252;28;20206;-61
2023/01/11 10:14:29;;;;;;;8.07;3.67;;;;;;;;;;5071418;28;20248;-60
2023/01/11 10:17:21;;;;;;;6.47;4.07;;;;;;;;;;5080261;28;20206;-60
2023/01/11 10:20:16;;;;;;;6.47;3.13;;;;;;;;;;5081157;28;20269;-60
2023/01/11 10:22:46;;;;;;;5.90;3.00;;;;;;;;;;5080136;28;20222;-61
2023/01/11 10:25:20;;;;;;;6.33;3.27;;;;;;;;;;5078103;28;20230;-61
2023/01/11 10:27:55;;;;;;;8.47;3.57;;;;;;;;;;5079755;28;20291;-60
2023/01/11 10:30:54;;;;;;;7.80;3.17;;;;;;;;;;5079437;28;20198;-61
2023/01/11 10:33:44;;;;;;;5.17;3.23;;;;;;;;;;5078610;28;20570;-61
2023/01/11 10:36:33;;;;;;;5.30;3.10;;;;;;;;;;5079859;28;20241;-61
2023/01/11 10:39:14;;;;;;;6.97;3.30;;;;;;;;;;5080171;28;20206;-62
2023/01/11 10:41:51;;;;;;;5.70;2.83;;;;;;;;;;5079667;28;20203;-61
2023/01/11 10:44:23;;;;;;;8.53;3.00;;;;;;;;;;5079462;28;20214;-62
2023/01/11 10:46:53;;;;;;;4.23;2.50;;;;;;;;;;5077288;28;20653;-61
2023/01/11 10:49:38;;;;;;;3.23;2.13;;;;;;;;;;5078155;28;20206;-61
2023/01/11 10:52:14;;;;;;;3.60;2.63;;;;;;;;;;5080061;28;20220;-62
2023/01/11 10:54:45;;;;;;;7.37;3.10;;;;;;;;;;5079635;28;20261;-61
2023/01/11 10:57:19;;;;;;;3.83;2.80;;;;;;;;;;5077585;28;20206;-61
2023/01/11 10:59:54;;;;;;;5.87;2.63;;;;;;;;;;5079517;28;20289;-61
2023/01/11 11:02:28;;;;;;;2.83;2.33;;;;;;;;;;5079467;28;20653;-61
2023/01/11 11:05:04;;;;;;;5.30;3.13;;;;;;;;;;5079508;28;20202;-61
2023/01/11 11:07:36;;;;;;;3.37;2.47;;;;;;;;;;5067905;28;20210;-61
2023/01/11 11:10:10;;;;;;;2.70;2.13;;;;;;;;;;5079551;28;20202;-61
2023/01/11 11:12:41;;;;;;;4.83;2.83;;;;;;;;;;5076244;28;20300;-61
2023/01/11 11:15:11;;;;;;;4.43;2.20;;;;;;;;;;5078902;28;20284;-60
2023/01/11 11:17:42;;;;;;;3.20;2.90;;;;;;;;;;5079364;28;20213;-61
2023/01/11 11:20:13;;;;;;;6.50;2.93;;;;;;;;;;5079345;28;20256;-61
2023/01/11 11:22:43;;;;;;;5.13;3.07;;;;;;;;;;5079219;28;20218;-61
2023/01/11 11:25:15;;;;;;;6.10;3.57;;;;;;;;;;5079508;28;20206;-61
2023/01/11 11:27:44;;;;;;;7.17;3.53;;;;;;;;;;5079124;28;20213;-60
2023/01/11 11:30:13;;;;;;;5.63;3.50;;;;;;;;;;5079066;28;20212;-60
2023/01/11 11:32:54;;;;;;;7.27;3.90;;;;;;;;;;5078761;28;20702;-60
2023/01/11 11:35:46;;;;;;;5.87;4.20;;;;;;;;;;5078896;28;20226;-61
2023/01/11 11:38:21;;;;;;;5.20;3.87;;;;;;;;;;5073253;28;20230;-61
2023/01/11 11:40:56;;;;;;;4.17;3.77;;;;;;;;;;5079186;28;20241;-61
2023/01/11 11:43:25;;;;;;;5.57;3.63;;;;;;;;;;5075326;28;20222;-63
2023/01/11 11:45:54;;;;;;;6.83;4.27;;;;;;;;;;5078771;28;20241;-63
2023/01/11 11:48:24;;;;;;;6.93;4.83;;;;;;;;;;5078911;28;20289;-63
2023/01/11 11:50:53;;;;;;;14.13;8.67;;;;;;;;;;5078799;28;20662;-63
2023/01/11 11:53:27;;;;;;;9.80;4.77;;;;;;;;;;5078744;28;20226;-63
2023/01/11 11:55:55;;;;;;;6.20;4.57;;;;;;;;;;5078479;28;20205;-63
2023/01/11 11:58:25;;;;;;;7.67;5.20;;;;;;;;;;5078587;28;20259;-63
2023/01/11 12:00:53;;;;;;;6.23;4.83;;;;;;;;;;5077048;28;20261;-62
2023/01/11 12:03:24;;;;;;;6.10;4.13;;;;;;;;;;5069768;28;20237;-63
2023/01/11 12:05:56;;;;;;;8.17;3.73;;;;;;;;;;5078572;28;20222;-63
2023/01/11 12:08:24;;;;;;;6.57;3.67;;;;;;;;;;5078635;28;20256;-63
2023/01/11 12:10:54;;;;;;;4.70;3.60;;;;;;;;;;5078509;28;20213;-63
2023/01/11 12:13:27;;;;;;;8.47;3.70;;;;;;;;;;5068344;28;20234;-64
2023/01/11 12:15:55;;;;;;;5.17;3.40;;;;;;;;;;5078103;28;20234;-63
2023/01/11 12:18:26;;;;;;;8.10;4.60;;;;;;;;;;5078081;28;20210;-63
2023/01/11 12:20:54;;;;;;;6.00;4.37;;;;;;;;;;5078026;28;20718;-64
2023/01/11 12:23:24;;;;;;;6.53;3.83;;;;;;;;;;5078349;28;20222;-63
2023/01/11 12:26:07;;;;;;;5.17;3.47;;;;;;;;;;5078194;28;20209;-63
2023/01/11 12:28:54;;;;;;;7.23;4.37;;;;;;;;;;5075742;28;20202;-63
2023/01/11 12:31:28;;;;;;;7.63;4.07;;;;;;;;;;5078211;28;20242;-64
2023/01/11 12:34:02;;;;;;;9.27;4.30;;;;;;;;;;5077812;28;20245;-63
2023/01/11 12:36:33;;;;;;;11.33;4.13;;;;;;;;;;5077890;28;20550;-62
2023/01/11 12:39:05;;;;;;;8.93;4.83;;;;;;;;;;5074123;28;20226;-61
2023/01/11 12:41:46;;;;;;;7.23;4.13;;;;;;;;;;5075103;28;20202;-61
2023/01/11 12:44:16;;;;;;;8.83;4.97;;;;;;;;;;5074930;28;20217;-62
2023/01/11 12:46:51;;;;;;;6.87;4.10;;;;;;;;;;5077174;28;20213;-62
2023/01/11 12:49:27;;;;;;;8.17;4.80;;;;;;;;;;5075637;28;20225;-61
2023/01/11 12:52:06;;;;;;;6.63;4.00;;;;;;;;;;5076302;28;20232;-62
2023/01/11 12:54:42;;;;;;;6.87;4.50;;;;;;;;;;5076170;28;20225;-62
2023/01/11 12:57:15;;;;;;;7.17;4.00;;;;;;;;;;5076608;28;20229;-62
2023/01/11 12:59:52;;;;;;;8.57;4.70;;;;;;;;;;5074334;28;20648;-62
2023/01/11 13:02:31;;;;;;;8.90;4.03;;;;;;;;;;5075434;28;20198;-61
2023/01/11 13:05:05;;;;;;;10.30;4.40;;;;;;;;;;5075356;28;20200;-60
2023/01/11 13:07:40;;;;;;;7.23;3.83;;;;;;;;;;5076941;28;20198;-62
2023/01/11 13:10:16;;;;;;;7.37;3.97;;;;;;;;;;5077815;28;20197;-61
2023/01/11 13:12:47;;;;;;;6.87;4.67;;;;;;;;;;5077641;28;20257;-62
2023/01/11 13:15:22;;;;;;;9.80;4.93;;;;;;;;;;5077137;28;20380;-62
2023/01/11 13:17:52;;;;;;;10.27;5.23;;;;;;;;;;5077227;28;20212;-61
2023/01/11 13:20:29;;;;;;;9.30;5.10;;;;;;;;;;5075869;28;20198;-62
2023/01/11 13:23:10;;;;;;;8.63;4.53;;;;;;;;;;5074246;28;20257;-62
2023/01/11 13:25:39;;;;;;;10.37;5.37;;;;;;;;;;5078670;28;20282;-62
2023/01/11 13:28:14;;;;;;;7.87;4.27;;;;;;;;;;5077446;28;20206;-62
2023/01/11 13:30:50;;;;;;;7.17;3.77;;;;;;;;;;5081519;28;20571;-62
2023/01/11 13:33:21;;;;;;;3.93;3.50;;;;;;;;;;5081547;28;20252;-61
2023/01/11 13:35:53;;;;;;;7.30;4.20;;;;;;;;;;5081223;28;20229;-61
2023/01/11 13:38:27;;;;;;;6.27;4.37;;;;;;;;;;5077639;28;20213;-61
2023/01/11 13:40:59;;;;;;;9.40;4.47;;;;;;;;;;5081784;28;20250;-61
2023/01/11 13:43:32;;;;;;;9.37;4.40;;;;;;;;;;5081031;28;20237;-61
2023/01/11 13:46:05;;;;;;;8.40;3.80;;;;;;;;;;5081727;28;20262;-60
2023/01/11 13:48:37;;;;;;;10.73;4.33;;;;;;;;;;5079853;28;20201;-62
2023/01/11 13:51:13;;;;;;;6.47;3.67;;;;;;;;;;5079766;28;20202;-62
2023/01/11 13:53:44;;;;;;;5.63;4.20;;;;;;;;;;5076725;28;20248;-62
2023/01/11 13:56:14;;;;;;;9.80;4.83;;;;;;;;;;5080237;28;20751;-63
2023/01/11 13:58:47;;;;;;;6.20;3.83;;;;;;;;;;5079624;28;20202;-63
2023/01/11 14:01:17;;;;;;;8.67;3.37;;;;;;;;;;5080918;28;20206;-62
2023/01/11 14:03:48;;;;;;;8.17;4.23;;;;;;;;;;5081024;28;20226;-62
2023/01/11 14:06:26;;;;;;;9.13;4.80;;;;;;;;;;5080870;28;20209;-63
2023/01/11 14:09:03;;;;;;;8.20;4.77;;;;;;;;;;5081035;28;20289;-62
2023/01/11 14:11:37;;;;;;;8.00;4.57;;;;;;;;;;5080661;28;20266;-63
2023/01/11 14:14:17;;;;;;;17.27;11.77;;;;;;;;;;5080143;28;20251;-61
2023/01/11 14:16:53;;;;;;;11.60;4.90;;;;;;;;;;5080828;28;20252;-61
2023/01/11 14:19:24;;;;;;;9.80;4.53;;;;;;;;;;5080381;28;20236;-62
2023/01/11 14:22:00;;;;;;;9.73;5.20;;;;;;;;;;5080693;28;20205;-61
2023/01/11 14:24:28;;;;;;;10.10;4.83;;;;;;;;;;5080619;28;20229;-62
2023/01/11 14:27:14;;;;;;;8.70;4.50;;;;;;;;;;5080615;28;20206;-62
2023/01/11 14:29:57;;;;;;;7.83;4.73;;;;;;;;;;5079911;28;20716;-62
2023/01/11 14:32:33;;;;;;;5.83;4.57;;;;;;;;;;5080241;28;20210;-61
2023/01/11 14:35:19;;;;;;;8.97;4.33;;;;;;;;;;5080180;28;20234;-61
2023/01/11 14:38:01;;;;;;;9.17;5.00;;;;;;;;;;5069546;28;20201;-61
2023/01/11 14:40:47;;;;;;;11.70;5.37;;;;;;;;;;5072646;28;20210;-61
2023/01/11 14:43:24;;;;;;;8.43;4.43;;;;;;;;;;5079405;28;20228;-60
2023/01/11 14:46:04;;;;;;;6.30;4.30;;;;;;;;;;5079742;28;20190;-60
2023/01/11 14:48:35;;;;;;;9.37;5.33;;;;;;;;;;5077198;28;20201;-60
2023/01/11 14:51:16;;;;;;;10.23;4.43;;;;;;;;;;5079526;28;20253;-61
2023/01/11 14:53:50;;;;;;;7.53;4.53;;;;;;;;;;5079067;28;20589;-61
2023/01/11 14:56:46;;;;;;;6.93;4.37;;;;;;;;;;5079898;28;20257;-60
2023/01/11 14:59:22;;;;;;;6.50;4.27;;;;;;;;;;5079618;28;20576;-60
2023/01/11 15:02:09;;;;;;;7.80;5.20;;;;;;;;;;5072833;28;20237;-60
2023/01/11 15:04:37;;;;;;;9.73;4.57;;;;;;;;;;5079764;28;20313;-60
2023/01/11 15:07:20;;;;;;;6.17;4.33;;;;;;;;;;5079715;28;20206;-60
2023/01/11 15:09:50;;;;;;;9.87;5.07;;;;;;;;;;5079968;28;20237;-60
2023/01/11 15:12:19;;;;;;;10.67;5.60;;;;;;;;;;5079614;28;20571;-61
2023/01/11 15:14:48;;;;;;;10.77;4.77;;;;;;;;;;5079682;28;20276;-60
2023/01/11 15:20:06;;;;;;;7.20;4.97;;;;;;;;;;5079536;28;20291;-61
2023/01/11 15:22:34;;;;;;;7.77;5.03;;;;;;;;;;5079280;28;20240;-61
2023/01/11 15:25:05;;;;;;;8.63;4.30;;;;;;;;;;5079533;28;20264;-61
2023/01/11 15:27:34;;;;;;;8.07;4.93;;;;;;;;;;5079180;28;20242;-60
2023/01/11 15:30:02;;;;;;;8.53;5.10;;;;;;;;;;5075940;28;20202;-60